Time;durP1;ratioP1;P1;durP2;ratioP2;P2;SDS_P1;SDS_P2;PMS_P1;PMS_P2;Temp;Humidity;BMP_temperature;BMP_pressure;BME280_temperature;BME280_humidity;BME280_pressure;Samples;Min_cycle;Max_cycle;Signal;HPM_P1;HPM_P2
2022/10/21 00:01:16;;;;;;;12.90;8.73;;;11.20;99.90;;;;;;5094363;28;20190;-77
2022/10/21 00:03:41;;;;;;;11.55;9.02;;;11.20;99.90;;;;;;5091253;28;20195;-78
2022/10/21 00:06:08;;;;;;;11.73;9.15;;;11.20;99.90;;;;;;5092049;28;20206;-78
2022/10/21 00:08:34;;;;;;;11.75;9.52;;;11.10;99.90;;;;;;5088462;28;20192;-77
2022/10/21 00:11:02;;;;;;;12.57;9.13;;;11.10;99.90;;;;;;5080206;28;20174;-77
2022/10/21 00:13:30;;;;;;;9.43;8.50;;;11.20;99.90;;;;;;5093194;28;20182;-78
2022/10/21 00:16:00;;;;;;;9.88;8.07;;;11.10;99.90;;;;;;5091619;28;20198;-78
2022/10/21 00:18:27;;;;;;;10.48;9.38;;;11.10;99.90;;;;;;5102844;28;20174;-78
2022/10/21 00:20:52;;;;;;;10.05;8.88;;;11.20;99.90;;;;;;5092851;28;20540;-77
2022/10/21 00:23:18;;;;;;;10.80;9.02;;;11.20;99.90;;;;;;5094776;28;20190;-77
2022/10/21 00:25:54;;;;;;;12.93;9.02;;;11.10;99.90;;;;;;5089532;28;20636;-77
2022/10/21 00:28:19;;;;;;;12.00;8.68;;;11.10;99.90;;;;;;5092637;28;20182;-77
2022/10/21 00:30:45;;;;;;;9.98;8.75;;;11.20;99.90;;;;;;5098046;28;20171;-76
2022/10/21 00:33:12;;;;;;;9.95;9.10;;;11.10;99.90;;;;;;5098143;28;20224;-76
2022/10/21 00:35:38;;;;;;;9.55;8.60;;;11.00;99.90;;;;;;5089615;28;20193;-77
2022/10/21 00:38:04;;;;;;;9.60;8.70;;;11.00;99.90;;;;;;5085199;28;20197;-78
2022/10/21 00:40:30;;;;;;;10.85;9.15;;;11.10;99.90;;;;;;5095125;28;20656;-77
2022/10/21 00:42:56;;;;;;;9.43;8.43;;;11.10;99.90;;;;;;5088854;28;20171;-76
2022/10/21 00:45:27;;;;;;;10.30;9.32;;;11.10;99.90;;;;;;5095306;28;20270;-77
2022/10/21 00:48:03;;;;;;;9.00;8.20;;;11.10;99.90;;;;;;5087281;28;20662;-77
2022/10/21 00:50:59;;;;;;;9.77;8.70;;;11.10;99.90;;;;;;5095228;28;20406;-77
2022/10/21 00:53:26;;;;;;;9.70;8.52;;;11.10;99.90;;;;;;5099339;28;20209;-76
2022/10/21 00:56:07;;;;;;;10.50;9.10;;;11.10;99.90;;;;;;5095093;28;20211;-76
2022/10/21 00:58:34;;;;;;;8.90;8.10;;;11.10;99.90;;;;;;5091623;28;20201;-77
2022/10/21 01:01:01;;;;;;;9.73;8.52;;;11.10;99.90;;;;;;5095822;28;20174;-77
2022/10/21 01:03:29;;;;;;;9.60;8.63;;;11.10;99.90;;;;;;5092565;28;20175;-77
2022/10/21 01:05:58;;;;;;;10.20;9.18;;;11.10;99.90;;;;;;5094882;28;20198;-76
2022/10/21 01:08:25;;;;;;;9.68;8.60;;;11.10;99.90;;;;;;5090847;28;20174;-77
2022/10/21 01:10:52;;;;;;;10.55;9.52;;;11.10;99.90;;;;;;5090912;28;20171;-77
2022/10/21 01:13:33;;;;;;;9.82;8.90;;;11.10;99.90;;;;;;5100344;28;20175;-76
2022/10/21 01:16:13;;;;;;;10.50;8.52;;;11.10;99.90;;;;;;5093490;28;20206;-77
2022/10/21 01:19:02;;;;;;;9.88;8.88;;;11.10;99.90;;;;;;5094522;28;20184;-77
2022/10/21 01:22:03;;;;;;;10.75;8.98;;;11.10;99.90;;;;;;5102789;28;20210;-78
2022/10/21 01:25:06;;;;;;;9.73;8.52;;;11.20;99.90;;;;;;5103868;28;20670;-77
2022/10/21 01:28:12;;;;;;;11.40;8.90;;;11.20;99.90;;;;;;5099731;28;20239;-77
2022/10/21 01:31:10;;;;;;;9.55;8.65;;;11.30;99.90;;;;;;5097273;28;20264;-80
2022/10/21 01:33:57;;;;;;;9.68;8.82;;;11.20;99.90;;;;;;5090328;28;20261;-77
2022/10/21 01:36:49;;;;;;;9.15;8.32;;;11.30;99.90;;;;;;5101002;28;20179;-76
2022/10/21 01:40:00;;;;;;;11.82;9.10;;;11.20;99.90;;;;;;5098317;28;20195;-77
2022/10/21 01:43:15;;;;;;;8.88;8.13;;;11.00;99.90;;;;;;5082583;28;20232;-77
2022/10/21 01:45:59;;;;;;;9.85;8.85;;;11.10;99.90;;;;;;5068360;28;20214;-77
2022/10/21 01:48:31;;;;;;;9.75;8.23;;;11.30;99.90;;;;;;5091889;28;20195;-80
2022/10/21 01:51:03;;;;;;;10.07;8.40;;;11.60;99.90;;;;;;5088783;28;20174;-77
2022/10/21 01:53:35;;;;;;;9.35;8.55;;;11.60;99.90;;;;;;5101278;28;20923;-76
2022/10/21 01:56:02;;;;;;;10.23;8.07;;;11.60;99.90;;;;;;5095138;28;20203;-76
2022/10/21 01:58:33;;;;;;;9.35;8.40;;;11.60;99.90;;;;;;5098495;28;20179;-77
2022/10/21 02:01:02;;;;;;;9.48;8.57;;;11.50;99.90;;;;;;5093896;28;20205;-77
2022/10/21 02:03:34;;;;;;;9.43;8.52;;;11.30;99.90;;;;;;5094153;28;20189;-77
2022/10/21 02:06:01;;;;;;;9.05;8.25;;;11.30;99.90;;;;;;5091677;28;20203;-77
2022/10/21 02:08:28;;;;;;;9.60;8.70;;;11.30;99.90;;;;;;5102020;28;20175;-77
2022/10/21 02:10:57;;;;;;;9.48;8.52;;;11.20;99.90;;;;;;5105653;28;20196;-77
2022/10/21 02:13:28;;;;;;;10.25;8.10;;;11.30;99.90;;;;;;5092298;28;20186;-77
2022/10/21 02:16:01;;;;;;;9.20;8.32;;;11.10;99.90;;;;;;5092336;28;20270;-76
2022/10/21 02:18:26;;;;;;;9.35;8.55;;;11.10;99.90;;;;;;5096172;28;20206;-77
2022/10/21 02:20:57;;;;;;;8.57;7.78;;;11.00;99.90;;;;;;5104404;28;20201;-76
2022/10/21 02:23:38;;;;;;;10.63;8.88;;;11.00;99.90;;;;;;5097399;28;20178;-76
2022/10/21 02:26:07;;;;;;;9.20;8.30;;;10.90;99.90;;;;;;5095385;28;20220;-77
2022/10/21 02:28:33;;;;;;;8.40;7.70;;;10.90;99.90;;;;;;5104308;28;20209;-76
2022/10/21 02:31:13;;;;;;;9.45;8.55;;;10.80;99.90;;;;;;5093246;28;20211;-76
2022/10/21 02:33:58;;;;;;;10.15;8.32;;;10.80;99.90;;;;;;5094322;28;20221;-76
2022/10/21 02:36:38;;;;;;;9.38;8.55;;;10.80;99.90;;;;;;5097285;28;20178;-76
2022/10/21 02:42:13;;;;;;;10.57;8.50;;;10.70;99.90;;;;;;5094330;28;20185;-77
2022/10/21 02:44:51;;;;;;;10.38;8.07;;;10.70;99.90;;;;;;5088419;28;20260;-77
2022/10/21 02:47:17;;;;;;;8.52;7.68;;;10.70;99.90;;;;;;5098828;28;20637;-77
2022/10/21 02:49:43;;;;;;;11.68;8.73;;;10.70;99.90;;;;;;5084442;28;20212;-78
2022/10/21 02:52:09;;;;;;;10.38;8.52;;;10.70;99.90;;;;;;5099462;28;20174;-77
2022/10/21 02:54:35;;;;;;;9.30;8.38;;;10.70;99.90;;;;;;5099021;28;20656;-77
2022/10/21 02:57:01;;;;;;;9.40;8.43;;;10.60;99.90;;;;;;5093855;28;20179;-77
2022/10/21 02:59:26;;;;;;;9.82;8.82;;;10.60;99.90;;;;;;5096060;28;20648;-78
2022/10/21 03:01:52;;;;;;;8.48;7.47;;;10.60;99.90;;;;;;5096997;28;20183;-77
2022/10/21 03:04:18;;;;;;;10.25;9.25;;;10.60;99.90;;;;;;5089716;28;20206;-77
2022/10/21 03:06:44;;;;;;;8.98;8.07;;;10.50;99.90;;;;;;5092310;28;20193;-77
2022/10/21 03:09:32;;;;;;;;;;;;;;;;;;;;;
2022/10/21 03:12:01;;;;;;;9.18;8.30;;;10.50;99.90;;;;;;5090480;28;20174;-76
2022/10/21 03:15:02;;;;;;;9.50;8.52;;;10.40;99.90;;;;;;5096173;28;20203;-76
2022/10/21 03:17:27;;;;;;;9.30;8.13;;;10.40;99.90;;;;;;5089288;28;20210;-77
2022/10/21 03:20:16;;;;;;;10.70;8.68;;;10.40;99.90;;;;;;5092176;28;20175;-77
2022/10/21 03:22:48;;;;;;;9.60;8.02;;;10.40;99.90;;;;;;5085927;28;20187;-76
2022/10/21 03:25:14;;;;;;;8.65;7.43;;;10.30;99.90;;;;;;5088917;28;20209;-76
2022/10/21 03:27:40;;;;;;;12.25;8.73;;;10.40;99.90;;;;;;5085527;28;20175;-76
2022/10/21 03:30:12;;;;;;;10.30;8.48;;;10.40;99.90;;;;;;5085833;28;20218;-76
2022/10/21 03:32:38;;;;;;;10.98;8.63;;;10.40;99.90;;;;;;5094740;28;20186;-76
2022/10/21 03:35:04;;;;;;;12.57;9.70;;;10.50;99.90;;;;;;5092139;28;20201;-76
2022/10/21 03:37:30;;;;;;;10.13;9.18;;;10.50;99.90;;;;;;5093530;28;20178;-76
2022/10/21 03:39:59;;;;;;;10.70;8.65;;;10.50;99.90;;;;;;5098988;28;20570;-76
2022/10/21 03:42:26;;;;;;;11.93;9.05;;;10.50;99.90;;;;;;5094279;28;20183;-76
2022/10/21 03:44:59;;;;;;;10.25;9.20;;;10.50;99.90;;;;;;5095939;28;20215;-76
2022/10/21 03:47:24;;;;;;;10.80;9.40;;;10.50;99.90;;;;;;5092786;28;20167;-77
2022/10/21 03:49:59;;;;;;;9.18;8.32;;;10.50;99.90;;;;;;5086512;28;20198;-76
2022/10/21 03:52:24;;;;;;;12.20;9.35;;;10.50;99.90;;;;;;5088565;28;20182;-77
2022/10/21 03:54:50;;;;;;;10.88;8.30;;;10.50;99.90;;;;;;5086270;28;20187;-77
2022/10/21 03:57:16;;;;;;;10.48;9.38;;;10.60;99.90;;;;;;5087956;28;20201;-77
2022/10/21 03:59:41;;;;;;;10.65;8.98;;;10.60;99.90;;;;;;5084383;28;20268;-77
2022/10/21 04:02:07;;;;;;;12.45;9.60;;;10.50;99.90;;;;;;5090188;28;20175;-77
2022/10/21 04:04:33;;;;;;;9.75;8.75;;;10.50;99.90;;;;;;5090278;28;20541;-77
2022/10/21 04:06:59;;;;;;;9.73;8.70;;;10.60;99.90;;;;;;5088991;28;20172;-77
2022/10/21 04:09:25;;;;;;;10.77;9.45;;;10.60;99.90;;;;;;5100390;28;20202;-77
2022/10/21 04:11:50;;;;;;;9.93;8.77;;;10.60;99.90;;;;;;5088335;28;20182;-79
2022/10/21 04:14:16;;;;;;;9.98;9.07;;;10.60;99.90;;;;;;5084128;28;20206;-76
2022/10/21 04:20:34;;;;;;;10.10;8.75;;;10.60;99.90;;;;;;5085337;28;20269;-77
2022/10/21 04:22:37;;;;;;;12.73;9.30;;;10.70;99.90;;;;;;5090925;28;20188;-77
2022/10/21 04:25:07;;;;;;;10.25;9.35;;;10.70;99.90;;;;;;5087978;28;20206;-77
2022/10/21 04:27:32;;;;;;;12.07;8.93;;;10.70;99.90;;;;;;5090412;28;20170;-77
2022/10/21 04:29:58;;;;;;;11.38;9.32;;;10.70;99.90;;;;;;5087992;28;20252;-77
2022/10/21 04:32:24;;;;;;;11.15;10.15;;;10.80;99.90;;;;;;5085346;28;20181;-76
2022/10/21 04:34:50;;;;;;;10.43;9.43;;;10.70;99.90;;;;;;5101296;28;20206;-77
2022/10/21 04:37:16;;;;;;;10.60;9.05;;;10.60;99.90;;;;;;5086949;28;20183;-77
2022/10/21 04:39:50;;;;;;;11.27;9.20;;;10.70;99.90;;;;;;5091917;28;20178;-78
2022/10/21 04:42:16;;;;;;;10.50;9.48;;;10.70;99.90;;;;;;5090179;28;20223;-77
2022/10/21 04:44:42;;;;;;;11.18;9.90;;;10.80;99.90;;;;;;5093618;28;20214;-77
2022/10/21 04:47:19;;;;;;;11.82;9.23;;;10.70;99.90;;;;;;5092675;28;20171;-77
2022/10/21 04:49:45;;;;;;;12.35;9.55;;;10.70;99.90;;;;;;5090097;28;20205;-77
2022/10/21 04:52:14;;;;;;;14.15;9.95;;;10.70;99.90;;;;;;5092410;28;20205;-76
2022/10/21 04:55:02;;;;;;;11.02;9.88;;;10.60;99.90;;;;;;5090556;28;20194;-76
2022/10/21 04:57:28;;;;;;;10.40;9.32;;;10.60;99.90;;;;;;5090733;28;20667;-76
2022/10/21 04:59:54;;;;;;;10.18;9.15;;;10.70;99.90;;;;;;5091284;28;20186;-76
2022/10/21 05:02:19;;;;;;;9.63;8.73;;;10.60;99.90;;;;;;5089079;28;20229;-77
2022/10/21 05:04:45;;;;;;;9.77;8.68;;;10.70;99.90;;;;;;5086123;28;20264;-76
2022/10/21 05:07:11;;;;;;;10.52;8.90;;;10.70;99.90;;;;;;5093597;28;20737;-75
2022/10/21 05:09:36;;;;;;;9.48;8.48;;;10.70;99.90;;;;;;5088750;28;20190;-77
2022/10/21 05:12:02;;;;;;;15.15;9.13;;;10.70;99.90;;;;;;5082106;28;20419;-80
2022/10/21 05:14:28;;;;;;;9.95;8.95;;;10.80;99.90;;;;;;5089809;28;20297;-75
2022/10/21 05:16:54;;;;;;;9.75;8.77;;;10.70;99.90;;;;;;5094366;28;20202;-75
2022/10/21 05:19:20;;;;;;;10.55;9.52;;;10.70;99.90;;;;;;5090462;28;20209;-75
2022/10/21 05:21:46;;;;;;;10.65;8.80;;;10.60;99.90;;;;;;5079198;28;20650;-76
2022/10/21 05:24:12;;;;;;;10.70;9.23;;;10.60;99.90;;;;;;5086899;28;20213;-75
2022/10/21 05:26:38;;;;;;;15.27;9.20;;;10.70;99.90;;;;;;5085261;28;20202;-76
2022/10/21 05:29:11;;;;;;;11.38;9.68;;;10.70;99.90;;;;;;5084056;28;20754;-76
2022/10/21 05:31:37;;;;;;;10.68;9.23;;;10.70;99.90;;;;;;5083954;28;20178;-77
2022/10/21 05:34:03;;;;;;;9.98;8.98;;;10.60;99.90;;;;;;5087372;28;20179;-77
2022/10/21 05:36:29;;;;;;;9.52;8.55;;;10.80;99.90;;;;;;5097461;28;20520;-77
2022/10/21 05:38:55;;;;;;;11.52;9.40;;;10.70;99.90;;;;;;5098951;28;20266;-77
2022/10/21 05:41:20;;;;;;;10.20;9.13;;;10.80;99.90;;;;;;5096299;28;20596;-77
2022/10/21 05:43:46;;;;;;;10.23;8.52;;;10.80;99.90;;;;;;5087765;27;20182;-74
2022/10/21 05:46:12;;;;;;;11.13;8.88;;;10.90;99.90;;;;;;5090809;28;20216;-75
2022/10/21 05:48:38;;;;;;;10.55;9.15;;;11.00;99.90;;;;;;5086532;28;20198;-74
2022/10/21 05:51:04;;;;;;;10.57;9.57;;;11.00;99.90;;;;;;5084885;28;20210;-75
2022/10/21 05:53:30;;;;;;;10.57;9.57;;;10.90;99.90;;;;;;5083734;28;20207;-75
2022/10/21 05:55:55;;;;;;;11.68;8.57;;;11.00;99.90;;;;;;5082119;28;20229;-76
2022/10/21 05:58:22;;;;;;;12.10;9.23;;;11.10;99.90;;;;;;5090958;28;20190;-79
2022/10/21 06:00:48;;;;;;;9.57;8.60;;;11.10;99.90;;;;;;5091788;27;20178;-77
2022/10/21 06:03:14;;;;;;;9.52;8.63;;;11.10;99.90;;;;;;5085105;28;20213;-75
2022/10/21 06:05:39;;;;;;;10.35;9.35;;;11.20;99.90;;;;;;5091201;28;20234;-75
2022/10/21 06:08:05;;;;;;;9.50;8.10;;;11.30;99.90;;;;;;5084738;28;20546;-75
2022/10/21 06:10:31;;;;;;;9.70;8.18;;;11.30;99.90;;;;;;5086644;28;20234;-76
2022/10/21 06:12:56;;;;;;;9.80;8.52;;;11.40;99.90;;;;;;5087371;28;20252;-76
2022/10/21 06:15:22;;;;;;;9.55;8.02;;;11.40;99.90;;;;;;5091730;28;20279;-76
2022/10/21 06:17:47;;;;;;;9.73;8.73;;;11.30;99.90;;;;;;5087737;28;20202;-76
2022/10/21 06:20:13;;;;;;;9.05;8.10;;;11.20;99.90;;;;;;5090613;28;20186;-75
2022/10/21 06:22:39;;;;;;;9.00;7.93;;;11.20;99.90;;;;;;5089614;28;20170;-76
2022/10/21 06:25:05;;;;;;;14.98;9.20;;;11.20;99.90;;;;;;5091187;28;20223;-75
2022/10/21 06:27:33;;;;;;;8.73;7.95;;;11.20;99.90;;;;;;5089090;28;20180;-78
2022/10/21 06:29:59;;;;;;;13.13;7.88;;;11.20;99.90;;;;;;5107789;28;20198;-79
2022/10/21 06:32:25;;;;;;;10.20;8.63;;;11.30;99.90;;;;;;5102414;28;20268;-78
2022/10/21 06:35:00;;;;;;;;;;;;;;;;;;;;;
2022/10/21 06:37:32;;;;;;;9.20;8.32;;;11.50;99.90;;;;;;5104239;28;20234;-78
2022/10/21 06:39:58;;;;;;;9.95;9.05;;;11.70;99.90;;;;;;5103900;28;20184;-77
2022/10/21 06:42:24;;;;;;;10.35;8.30;;;11.80;99.90;;;;;;5087325;28;20205;-76
2022/10/21 06:44:49;;;;;;;9.35;8.38;;;11.80;99.90;;;;;;5096525;28;20701;-77
2022/10/21 06:47:16;;;;;;;9.95;8.45;;;11.90;99.90;;;;;;5086611;28;20179;-76
2022/10/21 06:49:41;;;;;;;8.77;7.88;;;12.00;99.90;;;;;;5083162;28;20279;-76
2022/10/21 06:52:07;;;;;;;10.88;9.60;;;12.00;99.90;;;;;;5090157;28;20638;-76
2022/10/21 06:54:32;;;;;;;9.00;8.20;;;12.00;99.90;;;;;;5085161;28;20199;-75
2022/10/21 06:56:58;;;;;;;8.23;7.53;;;11.90;99.90;;;;;;5088691;28;20179;-75
2022/10/21 06:59:24;;;;;;;9.30;8.38;;;11.90;99.90;;;;;;5091035;28;20198;-74
2022/10/21 07:01:49;;;;;;;12.38;8.77;;;11.90;99.90;;;;;;5091198;28;20224;-75
2022/10/21 07:04:15;;;;;;;10.93;8.77;;;11.90;99.90;;;;;;5088042;28;20203;-75
2022/10/21 07:06:41;;;;;;;11.98;8.48;;;11.80;99.90;;;;;;5086645;28;20538;-76
2022/10/21 07:09:07;;;;;;;9.70;8.55;;;11.90;99.90;;;;;;5088792;28;20233;-75
2022/10/21 07:11:32;;;;;;;10.80;8.57;;;12.00;99.90;;;;;;5090547;28;20192;-77
2022/10/21 07:14:00;;;;;;;12.45;9.48;;;12.10;99.90;;;;;;5087664;28;20645;-77
2022/10/21 07:16:33;;;;;;;8.77;7.97;;;12.10;99.90;;;;;;5094885;28;20582;-76
2022/10/21 07:18:59;;;;;;;9.50;8.27;;;12.10;99.90;;;;;;5083236;28;20185;-76
2022/10/21 07:21:27;;;;;;;9.30;8.35;;;12.20;99.90;;;;;;5098799;28;20254;-75
2022/10/21 07:23:54;;;;;;;10.43;8.48;;;12.20;99.90;;;;;;5088415;28;20724;-75
2022/10/21 07:26:25;;;;;;;9.38;8.48;;;12.30;99.90;;;;;;5098406;28;20184;-79
2022/10/21 07:28:51;;;;;;;10.73;8.20;;;12.40;99.90;;;;;;5101885;28;20323;-78
2022/10/21 07:31:21;;;;;;;11.07;8.48;;;12.70;99.90;;;;;;5098350;28;20179;-80
2022/10/21 07:34:19;;;;;;;9.73;8.35;;;12.80;99.90;;;;;;5103842;28;20193;-79
2022/10/21 07:37:06;;;;;;;9.38;8.32;;;12.90;99.90;;;;;;5090792;28;20190;-81
2022/10/21 07:39:35;;;;;;;10.32;8.75;;;12.90;99.90;;;;;;5107879;28;20179;-81
2022/10/21 07:42:01;;;;;;;8.63;7.82;;;13.00;99.90;;;;;;5096323;28;20552;-79
2022/10/21 07:44:26;;;;;;;9.73;7.75;;;12.90;99.90;;;;;;5089127;28;20255;-76
2022/10/21 07:46:53;;;;;;;8.68;7.78;;;12.80;99.90;;;;;;5086383;28;20559;-75
2022/10/21 07:49:21;;;;;;;7.93;7.13;;;12.80;99.90;;;;;;5084569;28;20697;-76
2022/10/21 07:51:49;;;;;;;8.93;8.02;;;12.80;99.90;;;;;;5088632;28;20237;-77
2022/10/21 07:54:16;;;;;;;10.80;8.43;;;12.60;99.90;;;;;;5088399;28;20237;-76
2022/10/21 07:56:48;;;;;;;10.93;7.45;;;12.60;99.90;;;;;;5083174;28;20636;-76
2022/10/21 07:59:15;;;;;;;8.27;7.47;;;12.50;99.90;;;;;;5085662;28;20233;-75
2022/10/21 08:01:48;;;;;;;13.88;8.10;;;12.60;99.90;;;;;;5084701;28;20258;-76
2022/10/21 08:04:17;;;;;;;9.02;7.22;;;12.70;99.90;;;;;;5088895;28;20316;-75
2022/10/21 08:06:44;;;;;;;11.57;8.20;;;12.80;99.90;;;;;;5084581;28;20190;-78
2022/10/21 08:09:10;;;;;;;9.80;8.07;;;13.10;99.90;;;;;;5083605;28;21742;-77
2022/10/21 08:11:35;;;;;;;9.13;7.97;;;13.50;99.90;;;;;;5083324;28;20199;-77
2022/10/21 08:14:05;;;;;;;8.20;7.53;;;13.90;99.90;;;;;;5085819;28;20167;-78
2022/10/21 08:16:31;;;;;;;8.57;7.18;;;14.30;99.90;;;;;;5086503;28;20175;-77
2022/10/21 08:18:59;;;;;;;9.57;7.43;;;14.60;99.90;;;;;;5083015;28;20543;-77
2022/10/21 08:21:26;;;;;;;10.38;6.80;;;14.80;99.90;;;;;;5093741;28;20179;-77
2022/10/21 08:23:51;;;;;;;7.93;7.22;;;15.00;99.90;;;;;;5085151;28;20217;-78
2022/10/21 08:26:17;;;;;;;10.02;7.18;;;15.30;99.90;;;;;;5093717;28;20559;-80
2022/10/21 08:28:43;;;;;;;7.60;6.78;;;15.60;99.90;;;;;;5096642;28;20179;-80
2022/10/21 08:31:15;;;;;;;7.63;6.50;;;15.80;99.90;;;;;;5087446;28;20199;-79
2022/10/21 08:33:41;;;;;;;7.70;7.00;;;16.00;99.90;;;;;;5091019;28;20170;-79
2022/10/21 08:36:13;;;;;;;8.05;6.55;;;16.00;99.90;;;;;;5089462;28;20271;-75
2022/10/21 08:38:38;;;;;;;8.93;7.25;;;16.20;99.90;;;;;;5078648;28;20231;-76
2022/10/21 08:41:28;;;;;;;6.82;6.18;;;16.30;99.90;;;;;;5085539;28;20175;-79
2022/10/21 08:44:19;;;;;;;9.88;7.25;;;16.40;99.90;;;;;;5096333;28;20181;-79
2022/10/21 08:46:50;;;;;;;7.78;6.22;;;16.40;99.90;;;;;;5086938;28;20171;-80
2022/10/21 08:49:31;;;;;;;7.25;6.22;;;16.60;99.90;;;;;;5082660;28;20218;-78
2022/10/21 08:52:03;;;;;;;10.18;6.28;;;16.70;99.90;;;;;;5082963;28;20191;-78
2022/10/21 08:54:52;;;;;;;7.80;6.32;;;16.70;99.90;;;;;;5082424;28;20191;-78
2022/10/21 08:57:18;;;;;;;9.32;6.10;;;16.80;99.90;;;;;;5086618;28;20590;-78
2022/10/21 08:59:45;;;;;;;6.53;6.03;;;16.90;99.90;;;;;;5090178;28;20178;-78
2022/10/21 09:02:28;;;;;;;6.97;5.50;;;17.00;99.90;;;;;;5080764;28;20216;-78
2022/10/21 09:05:06;;;;;;;6.72;6.13;;;17.00;99.90;;;;;;5082492;28;20563;-79
2022/10/21 09:07:47;;;;;;;6.55;5.95;;;17.00;99.90;;;;;;5099129;28;20179;-76
2022/10/21 09:10:25;;;;;;;6.40;5.80;;;16.80;99.90;;;;;;5090854;28;20210;-77
2022/10/21 09:13:07;;;;;;;6.35;5.75;;;16.90;99.90;;;;;;5086143;28;20167;-77
2022/10/21 09:15:38;;;;;;;5.97;5.38;;;16.90;99.90;;;;;;5085224;28;20205;-76
2022/10/21 09:18:21;;;;;;;6.30;5.70;;;17.00;99.90;;;;;;5095937;28;20170;-77
2022/10/21 09:21:22;;;;;;;6.55;5.88;;;17.00;99.90;;;;;;5090390;28;20541;-77
2022/10/21 09:24:00;;;;;;;11.75;5.65;;;17.30;99.90;;;;;;5074760;28;20281;-77
2022/10/21 09:26:33;;;;;;;6.72;6.13;;;17.40;99.90;;;;;;5092258;28;20637;-77
2022/10/21 09:29:12;;;;;;;6.47;5.72;;;17.60;99.90;;;;;;5089757;28;20268;-77
2022/10/21 09:31:38;;;;;;;7.55;5.50;;;17.80;99.90;;;;;;5085001;28;20235;-76
2022/10/21 09:34:15;;;;;;;5.43;5.00;;;18.10;99.90;;;;;;5090630;28;20179;-76
2022/10/21 09:36:46;;;;;;;5.97;5.38;;;18.20;99.90;;;;;;5094005;28;20170;-77
2022/10/21 09:39:19;;;;;;;6.32;5.72;;;18.20;99.90;;;;;;5083773;28;20901;-76
2022/10/21 09:41:51;;;;;;;5.85;5.13;;;18.20;99.90;;;;;;5087627;28;20182;-76
2022/10/21 09:44:20;;;;;;;6.38;5.45;;;18.10;99.90;;;;;;5083376;28;20194;-76
2022/10/21 09:46:50;;;;;;;8.13;5.57;;;18.00;99.90;;;;;;5088042;28;20186;-76
2022/10/21 09:49:28;;;;;;;6.25;5.65;;;17.80;99.90;;;;;;5086355;28;20199;-76
2022/10/21 09:51:55;;;;;;;8.85;5.53;;;17.60;99.90;;;;;;5093822;27;20182;-77
2022/10/21 09:54:24;;;;;;;7.28;5.20;;;17.70;99.90;;;;;;5090196;28;20202;-78
2022/10/21 09:56:57;;;;;;;6.72;5.20;;;17.50;99.90;;;;;;5091158;28;20183;-77
2022/10/21 09:59:24;;;;;;;7.93;5.90;;;17.30;99.90;;;;;;5086987;28;20174;-75
2022/10/21 10:01:50;;;;;;;5.97;5.47;;;17.30;99.90;;;;;;5081398;28;20183;-76
2022/10/21 10:04:31;;;;;;;5.47;4.97;;;17.20;99.90;;;;;;5082614;28;20213;-76
2022/10/21 10:07:18;;;;;;;5.97;5.40;;;16.90;99.90;;;;;;5079407;28;20187;-75
2022/10/21 10:09:45;;;;;;;8.32;5.82;;;16.90;99.90;;;;;;5084664;28;20217;-75
2022/10/21 10:12:13;;;;;;;5.82;5.28;;;16.60;99.90;;;;;;5083479;28;20300;-74
2022/10/21 10:14:42;;;;;;;6.93;6.25;;;16.40;99.90;;;;;;5091898;28;20277;-76
2022/10/21 10:17:22;;;;;;;6.70;6.05;;;16.20;99.90;;;;;;5085298;28;20179;-79
2022/10/21 10:20:03;;;;;;;7.28;6.03;;;15.90;99.90;;;;;;5084852;28;20225;-75
2022/10/21 10:22:57;;;;;;;7.20;6.50;;;15.80;99.90;;;;;;5086542;28;20178;-75
2022/10/21 10:25:32;;;;;;;8.45;7.07;;;15.50;99.90;;;;;;5084207;28;20233;-75
2022/10/21 10:28:12;;;;;;;7.18;6.53;;;15.40;99.90;;;;;;5089530;28;20319;-75
2022/10/21 10:30:41;;;;;;;7.13;6.47;;;15.10;99.90;;;;;;5085841;28;20216;-75
2022/10/21 10:33:15;;;;;;;6.85;6.25;;;15.00;99.90;;;;;;5092522;28;20197;-75
2022/10/21 10:35:54;;;;;;;7.07;6.47;;;14.90;99.90;;;;;;5084208;28;20190;-74
2022/10/21 10:38:23;;;;;;;8.15;7.35;;;15.10;99.90;;;;;;5087469;28;20258;-75
2022/10/21 10:40:49;;;;;;;7.80;6.80;;;15.40;99.90;;;;;;5100605;28;20186;-75
2022/10/21 10:43:29;;;;;;;7.53;6.90;;;15.70;99.90;;;;;;5084061;28;20322;-74
2022/10/21 10:45:58;;;;;;;7.05;6.22;;;16.20;99.90;;;;;;5085908;28;20206;-75
2022/10/21 10:48:35;;;;;;;6.65;6.05;;;16.90;99.90;;;;;;5093220;28;20183;-74
2022/10/21 10:51:06;;;;;;;8.32;6.88;;;17.40;99.90;;;;;;5089823;28;20203;-75
2022/10/21 10:53:37;;;;;;;7.60;5.78;;;17.60;99.90;;;;;;5084760;28;20587;-75
2022/10/21 10:56:17;;;;;;;8.05;6.10;;;17.70;99.90;;;;;;5090511;28;20190;-76
2022/10/21 10:58:58;;;;;;;6.47;5.85;;;17.80;99.90;;;;;;5084862;28;20179;-75
2022/10/21 11:01:29;;;;;;;7.28;6.00;;;17.90;99.90;;;;;;5084938;28;20182;-79
2022/10/21 11:04:02;;;;;;;6.38;5.80;;;17.80;99.90;;;;;;5077394;28;20227;-73
2022/10/21 11:06:45;;;;;;;6.38;5.88;;;17.90;99.90;;;;;;5092238;28;20220;-73
2022/10/21 11:09:11;;;;;;;9.68;6.43;;;18.20;99.90;;;;;;5079887;28;20278;-73
2022/10/21 11:11:45;;;;;;;6.60;5.82;;;18.40;99.90;;;;;;5080555;28;20187;-75
2022/10/21 11:14:13;;;;;;;6.82;6.13;;;18.60;99.90;;;;;;5083527;28;20206;-75
2022/10/21 11:16:51;;;;;;;6.57;5.97;;;18.70;99.90;;;;;;5089246;28;20162;-75
2022/10/21 11:19:42;;;;;;;6.93;6.22;;;18.60;99.90;;;;;;5088369;28;20649;-76
2022/10/21 11:22:27;;;;;;;7.43;5.82;;;18.40;99.90;;;;;;5079725;28;20167;-77
2022/10/21 11:24:52;;;;;;;7.60;6.47;;;18.40;99.90;;;;;;5083641;28;20593;-76
2022/10/21 11:27:31;;;;;;;8.80;6.15;;;18.50;99.90;;;;;;5093449;28;20209;-76
2022/10/21 11:30:21;;;;;;;7.45;5.80;;;18.70;99.90;;;;;;5097219;28;20205;-76
2022/10/21 11:33:09;;;;;;;6.60;5.97;;;18.80;99.90;;;;;;5080140;28;20177;-77
2022/10/21 11:35:51;;;;;;;6.38;5.72;;;19.30;99.90;;;;;;5079176;28;20247;-76
2022/10/21 11:38:43;;;;;;;7.90;6.18;;;19.80;99.90;;;;;;5087584;28;20500;-76
2022/10/21 11:41:12;;;;;;;7.93;5.45;;;20.30;99.90;;;;;;5078710;28;20194;-76
2022/10/21 11:44:16;;;;;;;7.70;6.10;;;20.60;99.90;;;;;;5097510;28;20182;-76
2022/10/21 11:47:10;;;;;;;6.85;5.97;;;20.40;99.90;;;;;;5088646;28;20222;-76
2022/10/21 11:49:55;;;;;;;6.13;5.63;;;20.10;99.90;;;;;;5083467;28;20198;-76
2022/10/21 11:52:56;;;;;;;6.18;5.75;;;19.80;99.90;;;;;;5092753;28;20174;-76
2022/10/21 11:55:37;;;;;;;7.18;6.45;;;19.20;99.90;;;;;;5085330;28;20194;-76
2022/10/21 11:58:18;;;;;;;8.35;6.07;;;18.80;99.90;;;;;;5083234;28;20213;-76
2022/10/21 12:00:52;;;;;;;8.07;6.78;;;18.90;99.90;;;;;;5089331;28;20178;-76
2022/10/21 12:03:45;;;;;;;7.95;5.95;;;18.90;99.90;;;;;;5086755;28;20265;-76
2022/10/21 12:06:27;;;;;;;8.20;5.97;;;19.20;99.90;;;;;;5082940;28;20220;-76
2022/10/21 12:09:20;;;;;;;7.07;6.38;;;19.30;99.90;;;;;;5080755;28;20186;-76
2022/10/21 12:11:54;;;;;;;8.10;6.82;;;19.40;99.90;;;;;;5080750;28;20182;-76
2022/10/21 12:14:26;;;;;;;7.78;7.05;;;19.30;99.90;;;;;;5081150;28;20284;-76
2022/10/21 12:16:54;;;;;;;8.68;7.20;;;19.00;99.90;;;;;;5092628;28;20175;-78
2022/10/21 12:19:21;;;;;;;8.85;5.95;;;18.50;99.90;;;;;;5078974;28;20301;-76
2022/10/21 12:21:47;;;;;;;6.32;5.80;;;18.10;99.90;;;;;;5091912;28;20178;-76
2022/10/21 12:24:46;;;;;;;6.65;6.05;;;17.90;99.90;;;;;;5093316;28;20206;-76
2022/10/21 12:27:30;;;;;;;7.72;6.40;;;17.80;99.90;;;;;;5094726;28;20377;-76
2022/10/21 12:30:05;;;;;;;7.65;5.65;;;17.90;99.90;;;;;;5078538;28;20202;-75
2022/10/21 12:32:43;;;;;;;6.93;6.25;;;17.90;99.90;;;;;;5086920;28;20730;-75
2022/10/21 12:35:20;;;;;;;6.85;5.60;;;18.00;99.90;;;;;;5088448;28;20194;-75
2022/10/21 12:37:49;;;;;;;5.95;5.45;;;18.60;99.90;;;;;;5084104;28;20260;-75
2022/10/21 12:40:25;;;;;;;5.10;4.60;;;19.10;99.90;;;;;;5082785;28;20727;-75
2022/10/21 12:43:22;;;;;;;7.65;5.88;;;19.50;99.90;;;;;;5087280;28;20247;-75
2022/10/21 12:46:08;;;;;;;6.43;5.75;;;19.90;99.90;;;;;;5081067;28;20243;-75
2022/10/21 12:48:44;;;;;;;6.35;5.70;;;20.00;99.90;;;;;;5086415;28;20186;-75
2022/10/21 12:51:31;;;;;;;5.18;4.75;;;20.10;99.90;;;;;;5083695;28;20182;-75
2022/10/21 12:54:03;;;;;;;6.90;5.32;;;20.40;99.90;;;;;;5077477;28;20178;-78
2022/10/21 12:56:35;;;;;;;6.72;5.22;;;20.70;99.90;;;;;;5079884;28;20649;-77
2022/10/21 12:59:05;;;;;;;6.50;5.30;;;20.80;99.90;;;;;;5084590;28;20593;-77
2022/10/21 13:01:39;;;;;;;8.07;5.63;;;20.70;99.90;;;;;;5080002;28;20178;-76
2022/10/21 13:04:25;;;;;;;5.22;4.75;;;20.80;99.90;;;;;;5084505;28;20262;-77
2022/10/21 13:06:55;;;;;;;5.85;5.25;;;21.00;99.90;;;;;;5086864;28;20178;-77
2022/10/21 13:09:41;;;;;;;6.13;5.15;;;21.20;99.90;;;;;;5089963;28;20673;-79
2022/10/21 13:12:09;;;;;;;7.60;5.65;;;21.50;99.90;;;;;;5096195;28;20178;-79
2022/10/21 13:14:48;;;;;;;5.85;5.18;;;21.50;99.90;;;;;;5096756;28;20195;-77
2022/10/21 13:17:25;;;;;;;6.18;5.57;;;21.40;99.90;;;;;;5105682;27;20183;-77
2022/10/21 13:19:53;;;;;;;6.63;5.90;;;21.40;99.90;;;;;;5084408;28;20249;-75